Hercules, California
Current Conditions -  °F | °C
As of 4:26 AM on Thursday 23 Oct 2014 (Local Time) from KCCR Reporting Station
Scattered Clouds Scattered Clouds  
Wind Chill: 61°   Ceiling: Unl
Heat Index: 61°   Visibility: 10mi
Dew Point: 56°   Wind: 5mph
Humidity: 83%   Direction: 210°SSW
Pressure: 30.02"   Gusts: NA
Location:  38.01°N, 122.26°W
Report Text: KCCR 231126Z AUTO 21004KT 10SM SCT015 16/13 A3002 RMK AO2 T01610133
Loading
Personal Weather Stations






























Interactive Weather Map
Tropical Storm Tracking
New forecast layout! Learn more

10-Day Weather Forecast

Advertisements
Track Severe Weather on mobile